Ruby Valley, Nevada
Current Conditions -  °F | °C
As of 4:56 AM on Wednesday 22 Oct 2014 (Local Time) from KEKO Reporting Station
Clear Clear  
Wind Chill: 29°   Ceiling: Unl
Heat Index: 29°   Visibility: 10mi
Dew Point: 17°   Wind: 0mph
Humidity: 61%   Direction: NA
Pressure: 30.15"   Gusts: NA
Location:  40.5°N, 115.35°W
Report Text: KEKO 221156Z AUTO 00000KT 10SM CLR M02/M08 A3015 RMK AO2 SLP208 T10171083 10017 21022 51007 $
Loading
Personal Weather Stations






























Interactive Weather Map
Tropical Storm Tracking
New forecast layout! Learn more

10-Day Weather Forecast

Advertisements
Track Severe Weather on mobile